Time;durP1;ratioP1;P1;durP2;ratioP2;P2;SDS_P1;SDS_P2;PMS_P1;PMS_P2;Temp;Humidity;BMP_temperature;BMP_pressure;BME280_temperature;BME280_humidity;BME280_pressure;Samples;Min_cycle;Max_cycle;Signal;HPM_P1;HPM_P2
2021/04/07 00:02:21;;;;;;;4.63;1.40;;;5.90;99.90;;;;;;5049880;28;20761;-69
2021/04/07 00:04:52;;;;;;;2.85;1.30;;;5.90;99.90;;;;;;5051421;28;20210;-69
2021/04/07 00:07:19;;;;;;;2.53;1.50;;;5.90;99.90;;;;;;5052020;28;20271;-69
2021/04/07 00:09:45;;;;;;;1.35;1.20;;;5.90;99.90;;;;;;5045821;28;20543;-70
2021/04/07 00:12:11;;;;;;;2.30;1.50;;;5.90;99.90;;;;;;5032079;28;20202;-70
2021/04/07 00:14:37;;;;;;;1.92;1.20;;;5.90;99.90;;;;;;5032152;28;20199;-70
2021/04/07 00:17:04;;;;;;;1.40;1.30;;;5.90;99.90;;;;;;5031881;28;20230;-70
2021/04/07 00:19:30;;;;;;;2.60;1.75;;;5.80;99.90;;;;;;5032083;28;20227;-70
2021/04/07 00:21:56;;;;;;;3.45;1.50;;;5.80;99.90;;;;;;5047073;28;20273;-70
2021/04/07 00:24:23;;;;;;;4.15;1.80;;;5.80;99.90;;;;;;5052109;28;20214;-70
2021/04/07 00:26:49;;;;;;;3.17;1.30;;;5.80;99.90;;;;;;5047777;28;20192;-70
2021/04/07 00:29:15;;;;;;;3.78;1.20;;;5.80;99.90;;;;;;5032073;28;20358;-69
2021/04/07 00:31:41;;;;;;;5.13;2.63;;;5.70;99.90;;;;;;5034426;28;20194;-69
2021/04/07 00:34:08;;;;;;;2.88;1.70;;;5.70;99.90;;;;;;5032110;28;20210;-69
2021/04/07 00:36:34;;;;;;;2.88;1.42;;;5.80;99.90;;;;;;5042278;28;20202;-69
2021/04/07 00:39:00;;;;;;;1.55;1.40;;;5.70;99.90;;;;;;5037265;28;20269;-70
2021/04/07 00:41:27;;;;;;;2.33;1.52;;;5.70;99.90;;;;;;5038122;28;20223;-71
2021/04/07 00:43:53;;;;;;;1.50;1.40;;;5.80;99.90;;;;;;5048082;28;20191;-70
2021/04/07 00:46:19;;;;;;;2.17;1.50;;;5.70;99.90;;;;;;5047609;28;20199;-69
2021/04/07 00:48:45;;;;;;;2.95;1.45;;;5.80;99.90;;;;;;5049229;28;20210;-70
2021/04/07 00:51:12;;;;;;;4.00;1.40;;;5.80;99.90;;;;;;5050481;28;20210;-70
2021/04/07 00:53:39;;;;;;;4.25;1.65;;;5.80;99.90;;;;;;5036570;28;20199;-70
2021/04/07 00:56:05;;;;;;;2.80;1.75;;;5.70;99.90;;;;;;5033609;28;20547;-70
2021/04/07 00:58:32;;;;;;;1.73;1.35;;;5.70;99.90;;;;;;5039781;28;20206;-70
2021/04/07 01:00:58;;;;;;;3.10;1.52;;;5.70;99.90;;;;;;5048679;28;20253;-70
2021/04/07 01:03:25;;;;;;;4.47;1.42;;;5.60;99.90;;;;;;5032910;28;20210;-69
2021/04/07 01:05:55;;;;;;;2.42;1.67;;;5.70;99.90;;;;;;5036931;28;20539;-70
2021/04/07 01:08:21;;;;;;;3.72;2.03;;;5.70;99.90;;;;;;5040459;28;20199;-69
2021/04/07 01:10:47;;;;;;;2.47;1.08;;;5.70;99.90;;;;;;5042404;28;20206;-70
2021/04/07 01:13:13;;;;;;;2.05;1.30;;;5.70;99.90;;;;;;5043844;28;20194;-69
2021/04/07 01:15:40;;;;;;;3.55;1.48;;;5.70;99.90;;;;;;5041262;28;20239;-69
2021/04/07 01:18:07;;;;;;;2.13;1.52;;;5.60;99.90;;;;;;5036385;28;20195;-69
2021/04/07 01:20:33;;;;;;;2.22;1.48;;;5.70;99.90;;;;;;5030847;28;20235;-69
2021/04/07 01:23:01;;;;;;;6.78;3.45;;;5.60;99.90;;;;;;5034370;28;20199;-69
2021/04/07 01:25:28;;;;;;;6.53;1.95;;;5.60;99.90;;;;;;5035502;28;20187;-69
2021/04/07 01:27:55;;;;;;;3.35;1.60;;;5.60;99.90;;;;;;5048722;28;20194;-69
2021/04/07 01:30:22;;;;;;;3.08;1.65;;;5.60;99.90;;;;;;5051341;28;20582;-70
2021/04/07 01:32:48;;;;;;;4.57;1.50;;;5.60;99.90;;;;;;5043954;28;20297;-69
2021/04/07 01:35:19;;;;;;;1.55;1.38;;;5.60;99.90;;;;;;5049606;28;20685;-69
2021/04/07 01:37:46;;;;;;;4.30;1.60;;;5.50;99.90;;;;;;5048553;28;20210;-70
2021/04/07 01:40:14;;;;;;;4.13;1.52;;;5.50;99.90;;;;;;5039148;28;20195;-70
2021/04/07 01:42:43;;;;;;;2.92;1.33;;;5.60;99.90;;;;;;5047800;28;20213;-70
2021/04/07 01:45:11;;;;;;;3.28;1.63;;;5.60;99.90;;;;;;5043887;28;20191;-70
2021/04/07 01:47:37;;;;;;;2.35;1.60;;;5.60;99.90;;;;;;5032652;28;20206;-70
2021/04/07 01:50:05;;;;;;;3.08;1.48;;;5.60;99.90;;;;;;5049860;28;20232;-70
2021/04/07 01:52:32;;;;;;;2.60;1.55;;;5.60;99.90;;;;;;5040618;28;20214;-70
2021/04/07 01:55:00;;;;;;;3.70;1.38;;;5.60;99.90;;;;;;5041391;28;20218;-69
2021/04/07 01:57:26;;;;;;;1.75;1.52;;;5.60;99.90;;;;;;5040788;28;20645;-69
2021/04/07 01:59:53;;;;;;;2.33;1.65;;;5.50;99.90;;;;;;5041878;28;20256;-69
2021/04/07 02:02:20;;;;;;;5.60;3.85;;;5.50;99.90;;;;;;5040485;28;20211;-70
2021/04/07 02:04:46;;;;;;;4.80;2.10;;;5.50;99.90;;;;;;5030794;28;20347;-70
2021/04/07 02:07:15;;;;;;;7.68;2.05;;;5.50;99.90;;;;;;5035632;28;20203;-69
2021/04/07 02:09:42;;;;;;;2.22;2.00;;;5.60;99.90;;;;;;5036218;28;20215;-69
2021/04/07 02:12:08;;;;;;;5.68;2.20;;;5.50;99.90;;;;;;5047449;28;20207;-70
2021/04/07 02:14:35;;;;;;;7.40;2.75;;;5.50;99.90;;;;;;5039111;28;20200;-69
2021/04/07 02:17:04;;;;;;;3.00;1.80;;;5.60;99.90;;;;;;5042128;28;20191;-70
2021/04/07 02:19:33;;;;;;;5.07;2.20;;;5.50;99.90;;;;;;5041522;28;20238;-70
2021/04/07 02:22:05;;;;;;;6.60;2.60;;;5.50;99.90;;;;;;5034312;28;20708;-70
2021/04/07 02:24:32;;;;;;;6.75;1.80;;;5.50;99.90;;;;;;5033740;28;20606;-69
2021/04/07 02:27:01;;;;;;;6.80;2.53;;;5.40;99.90;;;;;;5035525;28;20211;-70
2021/04/07 02:29:28;;;;;;;5.20;2.65;;;5.50;99.90;;;;;;5037350;28;20226;-70
2021/04/07 02:31:54;;;;;;;2.17;1.65;;;5.60;99.90;;;;;;5047075;28;20203;-70
2021/04/07 02:34:21;;;;;;;2.88;1.92;;;5.50;99.90;;;;;;5034666;28;20587;-69
2021/04/07 02:36:47;;;;;;;3.33;2.78;;;5.60;99.90;;;;;;5036581;28;20195;-70
2021/04/07 02:39:13;;;;;;;1.92;1.73;;;5.50;99.90;;;;;;5034721;28;20192;-70
2021/04/07 02:41:40;;;;;;;3.40;2.22;;;5.50;99.90;;;;;;5047305;28;20250;-70
2021/04/07 02:44:06;;;;;;;6.20;2.42;;;5.50;99.90;;;;;;5034181;28;20265;-70
2021/04/07 02:46:33;;;;;;;3.35;1.80;;;5.40;99.90;;;;;;5044604;28;20199;-70
2021/04/07 02:48:59;;;;;;;8.13;2.42;;;5.50;99.90;;;;;;5054177;28;20242;-70
2021/04/07 02:51:26;;;;;;;2.75;1.95;;;5.50;99.90;;;;;;5051772;28;20198;-70
2021/04/07 02:53:52;;;;;;;4.68;2.50;;;5.40;99.90;;;;;;5034161;28;20525;-70
2021/04/07 02:56:18;;;;;;;4.40;2.40;;;5.40;99.90;;;;;;5041635;28;20276;-70
2021/04/07 02:58:44;;;;;;;3.75;2.22;;;5.30;99.90;;;;;;5047976;28;20200;-70
2021/04/07 03:01:11;;;;;;;4.25;2.92;;;5.40;99.90;;;;;;5033753;28;20544;-69
2021/04/07 03:03:37;;;;;;;4.10;2.53;;;5.40;99.90;;;;;;5034239;28;20211;-69
2021/04/07 03:06:03;;;;;;;8.43;3.22;;;5.40;99.90;;;;;;5038573;28;20822;-69
2021/04/07 03:08:30;;;;;;;3.45;2.60;;;5.40;99.90;;;;;;5052754;28;20199;-70
2021/04/07 03:10:56;;;;;;;6.47;2.75;;;5.40;99.90;;;;;;5041241;28;20257;-69
2021/04/07 03:13:23;;;;;;;5.07;2.42;;;5.40;99.90;;;;;;5043636;28;20199;-69
2021/04/07 03:15:49;;;;;;;7.18;2.92;;;5.40;99.90;;;;;;5046927;28;20627;-69
2021/04/07 03:18:15;;;;;;;4.78;2.95;;;5.40;99.90;;;;;;5053399;28;20194;-69
2021/04/07 03:20:42;;;;;;;3.78;2.90;;;5.40;99.90;;;;;;5043100;28;20228;-70
2021/04/07 03:23:08;;;;;;;4.30;3.10;;;5.40;99.90;;;;;;5033606;28;20195;-70
2021/04/07 03:25:35;;;;;;;4.97;2.50;;;5.40;99.90;;;;;;5033904;28;20265;-69
2021/04/07 03:28:01;;;;;;;5.20;2.88;;;5.40;99.90;;;;;;5052085;28;20214;-70
2021/04/07 03:30:28;;;;;;;3.05;2.30;;;5.40;99.90;;;;;;5046329;28;20215;-70
2021/04/07 03:32:54;;;;;;;5.68;3.22;;;5.40;99.90;;;;;;5039462;28;20551;-70
2021/04/07 03:35:20;;;;;;;2.72;2.22;;;5.40;99.90;;;;;;5053310;28;20206;-69
2021/04/07 03:37:46;;;;;;;4.63;3.08;;;5.40;99.90;;;;;;5041038;28;20206;-69
2021/04/07 03:40:13;;;;;;;2.60;2.40;;;5.40;99.90;;;;;;5047133;28;20667;-70
2021/04/07 03:42:40;;;;;;;6.32;2.70;;;5.40;99.90;;;;;;5033165;28;20647;-69
2021/04/07 03:45:07;;;;;;;7.40;2.92;;;5.40;99.90;;;;;;5033604;28;20210;-69
2021/04/07 03:47:33;;;;;;;5.35;3.03;;;5.30;99.90;;;;;;5039224;28;20204;-69
2021/04/07 03:49:59;;;;;;;5.10;3.78;;;5.30;99.90;;;;;;5050084;28;20750;-69
2021/04/07 03:52:26;;;;;;;5.30;2.95;;;5.30;99.90;;;;;;5033945;28;20278;-69
2021/04/07 03:54:56;;;;;;;7.13;2.78;;;5.30;99.90;;;;;;5053237;28;20198;-69
2021/04/07 03:57:22;;;;;;;3.00;2.42;;;5.30;99.90;;;;;;5046650;28;20222;-70
2021/04/07 03:59:49;;;;;;;5.30;2.50;;;5.30;99.90;;;;;;5047903;28;20218;-69
2021/04/07 04:02:16;;;;;;;2.88;2.42;;;5.30;99.90;;;;;;5038071;28;20199;-69
2021/04/07 04:04:42;;;;;;;2.67;2.47;;;5.30;99.90;;;;;;5036686;28;20203;-70
2021/04/07 04:07:08;;;;;;;3.88;2.35;;;5.30;99.90;;;;;;5046993;28;20214;-69
2021/04/07 04:09:34;;;;;;;4.70;3.22;;;5.30;99.90;;;;;;5052209;28;20215;-69
2021/04/07 04:12:00;;;;;;;4.60;3.92;;;5.30;99.90;;;;;;5048423;28;20721;-70
2021/04/07 04:14:27;;;;;;;6.13;3.10;;;5.30;99.90;;;;;;5049799;28;20233;-69
2021/04/07 04:16:54;;;;;;;3.65;2.72;;;5.30;99.90;;;;;;5041030;28;20746;-69
2021/04/07 04:19:20;;;;;;;3.50;3.17;;;5.30;99.90;;;;;;5040847;28;20227;-69
2021/04/07 04:21:46;;;;;;;3.90;2.67;;;5.30;99.90;;;;;;5038951;28;20290;-69
2021/04/07 04:24:13;;;;;;;3.30;3.00;;;5.30;99.90;;;;;;5042844;28;20195;-69
2021/04/07 04:26:39;;;;;;;5.20;3.67;;;5.30;99.90;;;;;;5039142;28;20269;-70
2021/04/07 04:29:05;;;;;;;3.72;3.10;;;5.30;99.90;;;;;;5046196;28;20218;-70
2021/04/07 04:31:31;;;;;;;6.28;4.28;;;5.30;99.90;;;;;;5050124;28;20531;-70
2021/04/07 04:33:58;;;;;;;5.78;4.90;;;5.30;99.90;;;;;;5047065;28;20286;-69
2021/04/07 04:36:24;;;;;;;5.00;3.25;;;5.20;99.90;;;;;;5045963;28;20191;-70
2021/04/07 04:38:51;;;;;;;5.45;4.10;;;5.30;99.90;;;;;;5034388;28;20591;-70
2021/04/07 04:41:17;;;;;;;4.43;4.03;;;5.20;99.90;;;;;;5041793;28;20202;-70
2021/04/07 04:43:43;;;;;;;8.25;4.50;;;5.30;99.90;;;;;;5045165;28;20207;-69
2021/04/07 04:46:09;;;;;;;7.50;5.20;;;5.30;99.90;;;;;;5051889;28;20195;-69
2021/04/07 04:48:35;;;;;;;6.32;4.78;;;5.30;99.90;;;;;;5048170;28;20194;-69
2021/04/07 04:51:02;;;;;;;7.20;4.45;;;5.30;99.90;;;;;;5033958;28;20203;-69
2021/04/07 04:53:28;;;;;;;4.00;3.60;;;5.30;99.90;;;;;;5051119;28;20195;-69
2021/04/07 04:55:55;;;;;;;6.07;3.80;;;5.30;99.90;;;;;;5050931;28;20210;-69
2021/04/07 04:58:21;;;;;;;5.13;4.60;;;5.30;99.90;;;;;;5049918;28;20206;-70
2021/04/07 05:00:47;;;;;;;4.07;3.67;;;5.30;99.90;;;;;;5032118;28;20192;-69
2021/04/07 05:03:13;;;;;;;5.13;3.70;;;5.30;99.90;;;;;;5043889;28;20562;-69
2021/04/07 05:05:40;;;;;;;10.50;4.32;;;5.30;99.90;;;;;;5047715;28;20195;-69
2021/04/07 05:08:07;;;;;;;5.15;4.65;;;5.30;99.90;;;;;;5031447;28;20257;-69
2021/04/07 05:10:33;;;;;;;8.65;4.32;;;5.30;99.90;;;;;;5032047;28;20223;-69
2021/04/07 05:13:00;;;;;;;4.47;4.07;;;5.30;99.90;;;;;;5031800;28;20199;-70
2021/04/07 05:15:26;;;;;;;6.28;4.78;;;5.30;99.90;;;;;;5039566;28;20296;-69
2021/04/07 05:17:52;;;;;;;6.28;5.45;;;5.30;99.90;;;;;;5043095;28;20210;-70
2021/04/07 05:20:18;;;;;;;4.88;4.32;;;5.30;99.90;;;;;;5041241;28;20266;-69
2021/04/07 05:22:45;;;;;;;8.15;5.10;;;5.20;99.90;;;;;;5046920;28;20389;-69
2021/04/07 05:25:13;;;;;;;5.50;4.55;;;5.20;99.90;;;;;;5043181;28;20207;-69
2021/04/07 05:27:39;;;;;;;5.70;5.07;;;5.20;99.90;;;;;;5044992;28;20209;-69
2021/04/07 05:30:07;;;;;;;6.22;5.05;;;5.20;99.90;;;;;;5044484;28;20210;-71
2021/04/07 05:32:34;;;;;;;5.75;4.55;;;5.30;99.90;;;;;;5048996;28;20582;-69
2021/04/07 05:35:00;;;;;;;6.00;5.20;;;5.30;99.90;;;;;;5037398;28;20629;-69
2021/04/07 05:37:26;;;;;;;6.68;6.05;;;5.30;99.90;;;;;;5045789;28;20198;-71
2021/04/07 05:39:52;;;;;;;7.03;5.95;;;5.30;99.90;;;;;;5045473;28;20689;-68
2021/04/07 05:42:19;;;;;;;6.15;5.55;;;5.30;99.90;;;;;;5031468;28;20203;-70
2021/04/07 05:44:45;;;;;;;9.25;6.15;;;5.30;99.90;;;;;;5031710;28;20211;-70
2021/04/07 05:47:12;;;;;;;9.32;6.47;;;5.30;99.90;;;;;;5036636;28;20203;-69
2021/04/07 05:49:38;;;;;;;7.45;6.25;;;5.30;99.90;;;;;;5046282;28;20210;-70
2021/04/07 05:52:04;;;;;;;8.65;6.72;;;5.30;99.90;;;;;;5050694;28;20191;-70
2021/04/07 05:54:31;;;;;;;10.05;6.68;;;5.20;99.90;;;;;;5051456;28;20237;-70
2021/04/07 05:56:58;;;;;;;7.35;6.50;;;5.30;99.90;;;;;;5055184;28;20199;-69
2021/04/07 05:59:25;;;;;;;8.27;7.10;;;5.30;99.90;;;;;;5051094;28;20223;-70
2021/04/07 06:01:51;;;;;;;7.53;6.47;;;5.20;99.90;;;;;;5048380;28;20199;-69
2021/04/07 06:04:17;;;;;;;10.55;7.72;;;5.30;99.90;;;;;;5053338;28;20757;-70
2021/04/07 06:06:44;;;;;;;8.48;6.63;;;5.30;99.90;;;;;;5053706;28;20207;-70
2021/04/07 06:09:10;;;;;;;8.88;7.97;;;5.20;99.90;;;;;;5045142;28;20678;-70
2021/04/07 06:11:36;;;;;;;11.00;8.30;;;5.20;99.90;;;;;;5037123;28;20207;-70
2021/04/07 06:14:02;;;;;;;8.75;7.85;;;5.20;99.90;;;;;;5037181;28;20258;-70
2021/04/07 06:16:29;;;;;;;11.10;8.20;;;5.30;99.90;;;;;;5053817;28;20218;-70
2021/04/07 06:18:55;;;;;;;9.50;8.05;;;5.30;99.90;;;;;;5050366;28;20188;-70
2021/04/07 06:21:22;;;;;;;8.77;7.20;;;5.20;99.90;;;;;;5048946;28;20210;-70
2021/04/07 06:23:48;;;;;;;9.77;7.85;;;5.20;99.90;;;;;;5047941;28;20211;-70
2021/04/07 06:26:14;;;;;;;9.35;7.30;;;5.20;99.90;;;;;;5044131;28;20203;-70
2021/04/07 06:28:40;;;;;;;8.10;7.30;;;5.20;99.90;;;;;;5046055;28;20191;-70
2021/04/07 06:31:06;;;;;;;7.97;7.18;;;5.30;99.90;;;;;;5041200;28;20198;-70
2021/04/07 06:33:36;;;;;;;9.02;7.57;;;5.30;99.90;;;;;;5054248;28;20885;-70
2021/04/07 06:36:05;;;;;;;8.02;7.22;;;5.30;99.90;;;;;;5053473;28;20218;-70
2021/04/07 06:38:32;;;;;;;9.27;8.27;;;5.30;99.90;;;;;;5053072;28;20199;-69
2021/04/07 06:40:59;;;;;;;10.50;7.40;;;5.30;99.90;;;;;;5041678;28;20702;-69
2021/04/07 06:43:28;;;;;;;9.27;7.15;;;5.30;99.90;;;;;;5054374;28;20194;-70
2021/04/07 06:45:55;;;;;;;8.38;7.53;;;5.30;99.90;;;;;;5054096;28;20822;-70
2021/04/07 06:48:21;;;;;;;10.02;7.90;;;5.30;99.90;;;;;;5054386;28;20300;-70
2021/04/07 06:50:51;;;;;;;8.43;7.30;;;5.30;99.90;;;;;;5038113;28;20675;-70
2021/04/07 06:53:19;;;;;;;8.07;6.97;;;5.30;99.90;;;;;;5034124;28;20200;-70
2021/04/07 06:55:45;;;;;;;9.13;8.00;;;5.30;99.90;;;;;;5039591;28;20194;-70
2021/04/07 06:58:12;;;;;;;8.30;7.28;;;5.30;99.90;;;;;;5045135;28;20210;-70
2021/04/07 07:00:41;;;;;;;8.70;6.70;;;5.20;99.90;;;;;;5046785;28;20198;-70
2021/04/07 07:03:09;;;;;;;7.40;6.55;;;5.30;99.90;;;;;;5052529;28;20246;-70
2021/04/07 07:05:37;;;;;;;6.72;6.03;;;5.30;99.90;;;;;;5053982;28;20819;-70
2021/04/07 07:08:05;;;;;;;8.88;6.85;;;5.30;99.90;;;;;;5053968;28;20203;-70
2021/04/07 07:10:36;;;;;;;9.15;7.20;;;5.30;99.90;;;;;;5046420;28;20226;-70
2021/04/07 07:13:03;;;;;;;7.80;6.85;;;5.30;99.90;;;;;;5045572;28;20535;-70
2021/04/07 07:15:30;;;;;;;8.20;6.85;;;5.30;99.90;;;;;;5045203;28;20278;-70
2021/04/07 07:17:56;;;;;;;8.20;6.45;;;5.40;99.90;;;;;;5048224;28;20198;-70
2021/04/07 07:20:30;;;;;;;7.28;6.55;;;5.40;99.90;;;;;;5042469;28;20223;-70
2021/04/07 07:22:56;;;;;;;7.18;6.55;;;5.30;99.90;;;;;;5044769;28;20273;-70
2021/04/07 07:25:25;;;;;;;6.75;5.95;;;5.30;99.90;;;;;;5037579;28;20207;-70
2021/04/07 07:27:57;;;;;;;7.05;6.35;;;5.30;99.90;;;;;;5044435;28;20295;-70
2021/04/07 07:30:24;;;;;;;7.35;6.65;;;5.30;99.90;;;;;;5037223;28;20223;-70
2021/04/07 07:32:50;;;;;;;9.77;7.03;;;5.30;99.90;;;;;;5044933;28;20277;-70
2021/04/07 07:35:17;;;;;;;7.40;6.20;;;5.30;99.90;;;;;;5041623;28;20207;-70
2021/04/07 07:37:45;;;;;;;8.68;6.70;;;5.30;99.90;;;;;;5036146;28;20241;-70
2021/04/07 07:40:25;;;;;;;7.03;6.32;;;5.30;99.90;;;;;;5038057;28;20191;-70
2021/04/07 07:42:52;;;;;;;6.53;5.47;;;5.30;99.90;;;;;;5033633;28;20210;-70
2021/04/07 07:45:26;;;;;;;6.75;6.15;;;5.30;99.90;;;;;;5036158;28;20642;-70
2021/04/07 07:48:09;;;;;;;6.88;6.28;;;5.40;99.90;;;;;;5050283;28;20190;-70
2021/04/07 07:50:41;;;;;;;6.60;5.85;;;5.40;99.90;;;;;;5048765;28;20214;-70
2021/04/07 07:53:15;;;;;;;7.50;6.80;;;5.40;99.90;;;;;;5053303;28;20183;-71
2021/04/07 07:55:44;;;;;;;7.65;6.95;;;5.30;99.90;;;;;;5052902;28;20210;-70
2021/04/07 07:58:10;;;;;;;8.10;6.20;;;5.40;99.90;;;;;;5040800;28;20203;-70
2021/04/07 08:00:37;;;;;;;5.95;5.35;;;5.40;99.90;;;;;;5048986;28;20188;-70
2021/04/07 08:03:12;;;;;;;8.48;7.68;;;5.40;99.90;;;;;;5045120;28;20614;-70
2021/04/07 08:05:38;;;;;;;7.40;6.57;;;5.30;99.90;;;;;;5044213;28;20203;-72
2021/04/07 08:08:06;;;;;;;8.35;7.13;;;5.40;99.90;;;;;;5046073;28;20191;-71
2021/04/07 08:10:33;;;;;;;8.13;7.32;;;5.40;99.90;;;;;;5040873;28;20235;-71
2021/04/07 08:13:02;;;;;;;9.30;6.57;;;5.40;99.90;;;;;;5041849;28;20210;-71
2021/04/07 08:15:30;;;;;;;7.05;6.43;;;5.40;99.90;;;;;;5050818;28;20213;-71
2021/04/07 08:17:56;;;;;;;9.00;7.50;;;5.30;99.90;;;;;;5051728;28;20558;-71
2021/04/07 08:20:24;;;;;;;7.43;6.82;;;5.40;99.90;;;;;;5051861;28;20231;-71
2021/04/07 08:22:51;;;;;;;8.07;7.30;;;5.40;99.90;;;;;;5046994;28;20203;-71
2021/04/07 08:25:18;;;;;;;8.32;7.53;;;5.40;99.90;;;;;;5033554;28;20204;-71
2021/04/07 08:27:49;;;;;;;7.22;6.55;;;5.40;99.90;;;;;;5039657;28;20195;-71
2021/04/07 08:30:17;;;;;;;7.43;6.78;;;5.40;99.90;;;;;;5035344;28;20721;-71
2021/04/07 08:32:45;;;;;;;7.15;6.55;;;5.40;99.90;;;;;;5031490;28;20206;-71
2021/04/07 08:35:12;;;;;;;8.15;7.22;;;5.40;99.90;;;;;;5043720;28;20210;-71
2021/04/07 08:37:38;;;;;;;7.43;6.72;;;5.40;99.90;;;;;;5031609;28;20199;-72
2021/04/07 08:40:13;;;;;;;7.75;6.97;;;5.40;99.90;;;;;;5031650;28;20210;-71
2021/04/07 08:42:40;;;;;;;7.65;6.95;;;5.40;99.90;;;;;;5042958;28;20534;-71
2021/04/07 08:45:09;;;;;;;6.47;5.80;;;5.40;99.90;;;;;;5050108;28;20527;-71
2021/04/07 08:47:44;;;;;;;7.10;6.38;;;5.40;99.90;;;;;;5041699;28;20211;-71
2021/04/07 08:50:13;;;;;;;6.90;6.20;;;5.40;99.90;;;;;;5043338;28;20314;-72
2021/04/07 08:52:43;;;;;;;7.97;7.28;;;5.40;99.90;;;;;;5033547;28;20195;-71
2021/04/07 08:55:17;;;;;;;8.30;6.78;;;5.40;99.90;;;;;;5041077;28;20207;-71
2021/04/07 08:57:44;;;;;;;6.68;5.97;;;5.50;99.90;;;;;;5043901;28;20178;-71
2021/04/07 09:00:13;;;;;;;8.05;7.28;;;5.40;99.90;;;;;;5033366;28;20215;-71
2021/04/07 09:02:50;;;;;;;8.95;8.07;;;5.50;99.90;;;;;;5037111;28;20211;-71
2021/04/07 09:05:18;;;;;;;7.45;6.55;;;5.50;99.90;;;;;;5039749;28;20222;-71
2021/04/07 09:07:46;;;;;;;7.00;6.22;;;5.50;99.90;;;;;;5043502;28;20643;-71
2021/04/07 09:10:17;;;;;;;6.10;5.50;;;5.50;99.90;;;;;;5034647;28;20568;-71
2021/04/07 09:12:44;;;;;;;6.00;5.40;;;5.60;99.90;;;;;;5042998;28;20263;-71
2021/04/07 09:15:16;;;;;;;7.20;6.10;;;5.60;99.90;;;;;;5049425;28;20206;-71
2021/04/07 09:17:44;;;;;;;6.78;5.93;;;5.50;99.90;;;;;;5036379;28;20195;-71
2021/04/07 09:20:32;;;;;;;5.38;4.88;;;5.60;99.90;;;;;;5039160;28;20226;-71
2021/04/07 09:23:14;;;;;;;5.35;4.95;;;5.60;99.90;;;;;;5032584;28;20192;-71
2021/04/07 09:25:49;;;;;;;6.75;6.15;;;5.60;99.90;;;;;;5039935;28;20246;-72
2021/04/07 09:28:16;;;;;;;7.85;5.97;;;5.70;99.90;;;;;;5039687;28;20301;-71
2021/04/07 09:30:47;;;;;;;7.07;5.50;;;5.70;99.90;;;;;;5036461;28;20695;-71
2021/04/07 09:33:16;;;;;;;8.55;6.65;;;5.70;99.90;;;;;;5050520;28;20195;-76
2021/04/07 09:35:58;;;;;;;6.25;5.65;;;5.60;99.90;;;;;;5050818;28;20215;-70
2021/04/07 09:38:25;;;;;;;6.93;6.32;;;5.60;99.90;;;;;;5046120;28;20191;-69
2021/04/07 09:41:02;;;;;;;6.72;6.05;;;5.60;99.90;;;;;;5031287;28;20668;-69
2021/04/07 09:43:30;;;;;;;6.13;5.57;;;5.60;99.90;;;;;;5044923;28;20589;-69
2021/04/07 09:45:57;;;;;;;5.47;5.07;;;5.70;99.90;;;;;;5047575;28;20286;-69
2021/04/07 09:48:44;;;;;;;5.85;5.40;;;5.80;99.90;;;;;;5034874;28;20203;-70
2021/04/07 09:51:27;;;;;;;5.63;5.00;;;5.90;99.90;;;;;;5044149;28;20230;-70
2021/04/07 09:53:55;;;;;;;5.72;5.22;;;6.00;99.90;;;;;;5049434;28;20199;-70
2021/04/07 09:56:21;;;;;;;5.95;5.35;;;5.90;99.90;;;;;;5046271;28;20206;-70
2021/04/07 09:58:50;;;;;;;5.93;4.35;;;6.00;99.90;;;;;;5045557;28;20203;-70
2021/04/07 10:01:17;;;;;;;5.68;4.93;;;6.20;99.90;;;;;;5032115;28;20220;-70
2021/04/07 10:03:48;;;;;;;9.73;4.95;;;6.30;99.90;;;;;;5034917;28;20702;-69
2021/04/07 10:06:25;;;;;;;4.07;3.72;;;6.40;99.90;;;;;;5036583;28;20199;-69
2021/04/07 10:08:59;;;;;;;4.75;4.13;;;6.50;99.90;;;;;;5033985;28;20203;-70
2021/04/07 10:11:25;;;;;;;5.32;4.93;;;6.50;99.90;;;;;;5041859;28;20202;-69
2021/04/07 10:13:52;;;;;;;5.40;4.45;;;6.70;99.90;;;;;;5041287;28;20905;-69
2021/04/07 10:16:18;;;;;;;6.32;4.55;;;6.80;99.90;;;;;;5035458;28;20701;-68
2021/04/07 10:18:45;;;;;;;4.95;4.45;;;6.80;99.90;;;;;;5034191;28;20199;-68
2021/04/07 10:21:13;;;;;;;4.40;4.10;;;6.80;99.90;;;;;;5040736;28;20725;-73
2021/04/07 10:23:41;;;;;;;5.38;4.90;;;6.90;99.90;;;;;;5040045;28;20290;-69
2021/04/07 10:26:07;;;;;;;4.47;4.07;;;6.90;99.90;;;;;;5049026;28;20250;-70
2021/04/07 10:28:35;;;;;;;5.68;4.35;;;6.90;99.90;;;;;;5040059;28;20198;-69
2021/04/07 10:31:06;;;;;;;5.45;4.63;;;6.80;99.90;;;;;;5047227;28;20266;-69
2021/04/07 10:33:33;;;;;;;5.50;5.00;;;6.70;99.90;;;;;;5048675;28;20257;-70
2021/04/07 10:35:59;;;;;;;4.63;4.10;;;6.60;99.90;;;;;;5053262;28;20199;-69
2021/04/07 10:38:29;;;;;;;5.47;4.50;;;6.50;99.90;;;;;;5049760;28;20202;-70
2021/04/07 10:41:00;;;;;;;6.45;4.57;;;6.60;99.90;;;;;;5054068;28;20199;-69
2021/04/07 10:43:31;;;;;;;5.50;5.00;;;6.60;99.90;;;;;;5052655;28;20579;-70
2021/04/07 10:45:59;;;;;;;6.55;5.75;;;6.60;99.90;;;;;;5053977;28;20590;-70
2021/04/07 10:48:25;;;;;;;5.43;4.93;;;6.60;99.90;;;;;;5038794;28;20196;-69
2021/04/07 10:50:52;;;;;;;6.28;5.45;;;6.60;99.90;;;;;;5049747;28;20218;-69
2021/04/07 10:53:28;;;;;;;10.20;6.55;;;6.60;99.90;;;;;;5046963;28;20191;-69
2021/04/07 10:55:55;;;;;;;7.65;6.85;;;6.60;99.90;;;;;;5037902;28;20194;-69
2021/04/07 10:58:26;;;;;;;7.55;6.80;;;6.60;99.90;;;;;;5053000;28;20215;-70
2021/04/07 11:00:54;;;;;;;9.65;7.43;;;6.60;99.90;;;;;;5050908;28;20210;-69
2021/04/07 11:03:30;;;;;;;12.18;9.00;;;6.60;99.90;;;;;;5046574;28;20234;-69
2021/04/07 11:05:56;;;;;;;9.27;8.30;;;6.60;99.90;;;;;;5043467;28;20249;-69
2021/04/07 11:08:33;;;;;;;9.30;8.38;;;6.60;99.90;;;;;;5046016;28;20195;-69
2021/04/07 11:11:00;;;;;;;10.18;9.27;;;6.60;99.90;;;;;;5047649;28;20198;-69
2021/04/07 11:13:28;;;;;;;9.55;6.90;;;6.50;99.90;;;;;;5037107;28;20199;-69
2021/04/07 11:15:55;;;;;;;8.70;7.80;;;6.40;99.90;;;;;;5049543;28;20686;-69
2021/04/07 11:18:28;;;;;;;9.23;8.35;;;6.50;99.90;;;;;;5051249;28;20199;-69
2021/04/07 11:20:54;;;;;;;10.75;8.43;;;6.50;99.90;;;;;;5044717;28;20215;-69
2021/04/07 11:23:20;;;;;;;9.50;7.57;;;6.50;99.90;;;;;;5037900;28;20203;-69
2021/04/07 11:25:48;;;;;;;7.60;6.90;;;6.50;99.90;;;;;;5040817;28;20199;-71
2021/04/07 11:28:17;;;;;;;9.02;8.13;;;6.50;99.90;;;;;;5047055;28;20231;-69
2021/04/07 11:30:56;;;;;;;8.88;7.95;;;6.50;99.90;;;;;;5037816;28;20223;-69
2021/04/07 11:33:26;;;;;;;8.40;7.30;;;6.50;99.90;;;;;;5037396;28;20203;-69
2021/04/07 11:35:58;;;;;;;8.43;7.10;;;6.50;99.90;;;;;;5039010;28;20539;-69
2021/04/07 11:38:26;;;;;;;7.28;6.35;;;6.50;99.90;;;;;;5038813;28;20689;-70
2021/04/07 11:41:40;;;;;;;7.80;7.00;;;6.60;99.90;;;;;;5040910;28;20196;-69
2021/04/07 11:46:27;;;;;;;7.03;6.32;;;6.80;99.90;;;;;;5024501;28;20285;-69
2021/04/07 11:48:53;;;;;;;6.20;5.70;;;6.80;99.90;;;;;;5039766;28;20203;-69
2021/04/07 11:51:20;;;;;;;7.85;7.10;;;6.90;99.90;;;;;;5043080;28;20223;-69
2021/04/07 11:53:46;;;;;;;6.50;5.60;;;6.90;99.90;;;;;;5048545;28;20594;-70
2021/04/07 11:56:12;;;;;;;6.97;5.70;;;6.90;99.90;;;;;;5041376;28;20203;-69
2021/04/07 11:58:39;;;;;;;5.80;5.20;;;6.90;99.90;;;;;;5050653;28;20215;-69
2021/04/07 12:01:05;;;;;;;5.65;4.70;;;6.90;99.90;;;;;;5048404;28;20532;-69
2021/04/07 12:03:32;;;;;;;6.07;5.47;;;7.00;99.90;;;;;;5046179;28;20209;-70
2021/04/07 12:05:59;;;;;;;5.50;4.50;;;6.90;99.90;;;;;;5048990;28;20203;-69
2021/04/07 12:08:25;;;;;;;5.35;4.85;;;6.90;99.90;;;;;;5042336;28;20589;-70
2021/04/07 12:10:51;;;;;;;8.13;4.07;;;6.90;99.90;;;;;;5058948;28;20284;-69
2021/04/07 12:13:17;;;;;;;7.18;5.13;;;6.90;99.90;;;;;;5050179;28;20646;-69
2021/04/07 12:15:44;;;;;;;6.15;4.05;;;6.90;99.90;;;;;;5042741;28;20199;-69
2021/04/07 12:18:10;;;;;;;5.75;4.72;;;6.80;99.90;;;;;;5031881;28;20199;-69
2021/04/07 12:20:37;;;;;;;4.15;3.75;;;6.80;99.90;;;;;;5041127;28;20230;-70
2021/04/07 12:23:03;;;;;;;5.35;3.85;;;6.80;99.90;;;;;;5033227;28;20222;-69
2021/04/07 12:25:31;;;;;;;4.75;4.30;;;6.80;99.90;;;;;;5037867;28;20199;-69
2021/04/07 12:27:57;;;;;;;3.55;3.25;;;6.90;99.90;;;;;;5043561;28;20284;-69
2021/04/07 12:30:24;;;;;;;4.95;4.10;;;7.00;99.90;;;;;;5043713;28;20219;-69
2021/04/07 12:32:51;;;;;;;6.57;4.25;;;7.00;99.90;;;;;;5049286;28;20718;-69
2021/04/07 12:38:22;;;;;;;3.88;2.90;;;6.90;99.90;;;;;;5043922;28;20673;-69
2021/04/07 12:40:48;;;;;;;4.38;3.10;;;7.00;99.90;;;;;;5039596;28;20236;-69
2021/04/07 12:43:14;;;;;;;6.82;2.80;;;7.00;99.90;;;;;;5034770;28;20207;-69
2021/04/07 12:45:41;;;;;;;4.57;3.40;;;6.90;99.90;;;;;;5051720;28;20215;-70
2021/04/07 12:48:08;;;;;;;10.00;2.67;;;6.90;99.90;;;;;;5039662;28;20521;-70
2021/04/07 12:50:34;;;;;;;2.65;2.45;;;6.90;99.90;;;;;;5031835;28;20231;-70
2021/04/07 12:53:03;;;;;;;2.30;1.85;;;7.00;99.90;;;;;;5040980;28;20202;-70
2021/04/07 12:55:29;;;;;;;4.72;2.65;;;7.10;99.90;;;;;;5050737;28;20238;-70
2021/04/07 12:57:55;;;;;;;5.25;2.88;;;7.10;99.90;;;;;;5051338;28;20194;-70
2021/04/07 13:00:22;;;;;;;5.32;3.50;;;7.20;99.90;;;;;;5043929;28;20619;-70
2021/04/07 13:02:48;;;;;;;5.10;2.20;;;7.20;99.90;;;;;;5032166;28;20195;-69
2021/04/07 13:05:15;;;;;;;4.15;2.10;;;7.30;99.90;;;;;;5023775;28;20218;-70
2021/04/07 13:07:41;;;;;;;4.15;2.30;;;7.30;99.90;;;;;;5050632;28;20194;-69